KIWD/IWD METAR and TAF weather

Enter ICAO airport designator
Station Type Date Time Source
KIWD METAR 2019/11/21 02:56 UTC NOAA

KIWD 210256Z AUTO VRB05KT 10SM OVC055 03/00 A2989 RMK AO2 SLP135 T00280000 56038


Station Type Date Time Source
KIWD Decoded METAR 2019/11/21 02:56 UTC NOAA

Ironwood, Gogebic-Iron County Airport, MI, United States (KIWD) 46-32N 090-08W
Nov 20, 2019 - 09:56 PM EST / 2019.11.21 0256 UTC
Wind: Variable at 6 MPH (5 KT):0
Visibility: 10 mile(s):0
Sky conditions: overcast
Temperature: 37.0 F (2.8 C)
Dew Point: 32.0 F (0.0 C)
Relative Humidity: 81%
Pressure (altimeter): 29.89 in. Hg (1012 hPa)
Pressure tendency: 0.11 inches (3.8 hPa) lower than three hours ago
ob: KIWD 210256Z AUTO VRB05KT 10SM OVC055 03/00 A2989 RMK AO2 SLP135 T00280000 56038
cycle: 3

Station Type Date Time Source
KIWD TAF 2019/11/21 03:21 UTC NOAA

TAF
AMD KIWD 210319Z 2103/2124 12005KT P6SM OVC050
FM210600 15008KT 6SM -RA OVC007
FM210900 16003KT 4SM -RA OVC005
FM211200 34008KT 3/4SM -SN BR OVC003
FM211600 34012G21KT 1SM -SN OVC004
FM212000 32013G22KT 3SM -SN OVC014

Example: see airport list